sensor_id;sensor_type;location;lat;lon;timestamp;temperature;humidity
13186;DHT22;6658;53.080;7.428;2023-12-20T00:01:23;6.00;99.90
13186;DHT22;6658;53.080;7.428;2023-12-20T00:03:49;6.00;99.90
13186;DHT22;6658;53.080;7.428;2023-12-20T00:06:15;6.20;99.90
13186;DHT22;6658;53.080;7.428;2023-12-20T00:08:40;6.20;99.90
13186;DHT22;6658;53.080;7.428;2023-12-20T00:11:06;6.20;99.90
13186;DHT22;6658;53.080;7.428;2023-12-20T00:13:32;6.20;99.90
13186;DHT22;6658;53.080;7.428;2023-12-20T00:15:57;6.10;99.90
13186;DHT22;6658;53.080;7.428;2023-12-20T00:18:23;6.10;99.90
13186;DHT22;6658;53.080;7.428;2023-12-20T00:20:49;6.00;99.90
13186;DHT22;6658;53.080;7.428;2023-12-20T00:23:14;5.90;99.90
13186;DHT22;6658;53.080;7.428;2023-12-20T00:25:40;5.90;99.90
13186;DHT22;6658;53.080;7.428;2023-12-20T00:28:06;5.90;99.90
13186;DHT22;6658;53.080;7.428;2023-12-20T00:30:32;5.80;99.90
13186;DHT22;6658;53.080;7.428;2023-12-20T00:32:57;5.90;99.90
13186;DHT22;6658;53.080;7.428;2023-12-20T00:35:23;5.80;99.90
13186;DHT22;6658;53.080;7.428;2023-12-20T00:37:49;5.80;99.90
13186;DHT22;6658;53.080;7.428;2023-12-20T00:40:15;5.70;99.90
13186;DHT22;6658;53.080;7.428;2023-12-20T00:42:41;5.70;99.90
13186;DHT22;6658;53.080;7.428;2023-12-20T00:45:06;5.70;99.90
13186;DHT22;6658;53.080;7.428;2023-12-20T00:47:32;5.70;99.90
13186;DHT22;6658;53.080;7.428;2023-12-20T00:49:58;5.70;99.90
13186;DHT22;6658;53.080;7.428;2023-12-20T00:52:24;5.70;99.90
13186;DHT22;6658;53.080;7.428;2023-12-20T00:54:50;5.70;99.90
13186;DHT22;6658;53.080;7.428;2023-12-20T00:57:16;5.60;99.90
13186;DHT22;6658;53.080;7.428;2023-12-20T00:59:41;5.60;99.90
13186;DHT22;6658;53.080;7.428;2023-12-20T01:02:07;5.60;99.90
13186;DHT22;6658;53.080;7.428;2023-12-20T01:04:34;5.60;99.90
13186;DHT22;6658;53.080;7.428;2023-12-20T01:07:00;5.60;99.90
13186;DHT22;6658;53.080;7.428;2023-12-20T01:09:25;5.60;99.90
13186;DHT22;6658;53.080;7.428;2023-12-20T01:11:54;5.60;99.90
13186;DHT22;6658;53.080;7.428;2023-12-20T01:14:20;5.70;99.90
13186;DHT22;6658;53.080;7.428;2023-12-20T01:16:46;5.70;99.90
13186;DHT22;6658;53.080;7.428;2023-12-20T01:19:13;5.70;99.90
13186;DHT22;6658;53.080;7.428;2023-12-20T01:21:40;5.70;99.90
13186;DHT22;6658;53.080;7.428;2023-12-20T01:24:05;5.80;99.90
13186;DHT22;6658;53.080;7.428;2023-12-20T01:26:31;5.80;99.90
13186;DHT22;6658;53.080;7.428;2023-12-20T01:28:57;5.80;99.90
13186;DHT22;6658;53.080;7.428;2023-12-20T01:31:23;5.80;99.90
13186;DHT22;6658;53.080;7.428;2023-12-20T01:33:48;5.80;99.90
13186;DHT22;6658;53.080;7.428;2023-12-20T01:36:14;5.90;99.90
13186;DHT22;6658;53.080;7.428;2023-12-20T01:38:40;5.90;99.90
13186;DHT22;6658;53.080;7.428;2023-12-20T01:41:05;6.00;99.90
13186;DHT22;6658;53.080;7.428;2023-12-20T01:43:31;6.00;99.90
13186;DHT22;6658;53.080;7.428;2023-12-20T01:46:00;6.00;99.90
13186;DHT22;6658;53.080;7.428;2023-12-20T01:48:27;6.00;99.90
13186;DHT22;6658;53.080;7.428;2023-12-20T01:50:54;6.00;99.90
13186;DHT22;6658;53.080;7.428;2023-12-20T01:53:21;6.00;99.90
13186;DHT22;6658;53.080;7.428;2023-12-20T01:55:50;6.10;99.90
13186;DHT22;6658;53.080;7.428;2023-12-20T01:58:17;6.10;99.90
13186;DHT22;6658;53.080;7.428;2023-12-20T02:00:44;6.10;99.90
13186;DHT22;6658;53.080;7.428;2023-12-20T02:03:09;6.10;99.90
13186;DHT22;6658;53.080;7.428;2023-12-20T02:05:36;6.10;99.90
13186;DHT22;6658;53.080;7.428;2023-12-20T02:08:05;6.10;99.90
13186;DHT22;6658;53.080;7.428;2023-12-20T02:10:31;6.20;99.90
13186;DHT22;6658;53.080;7.428;2023-12-20T02:12:57;6.20;99.90
13186;DHT22;6658;53.080;7.428;2023-12-20T02:15:23;6.20;99.90
13186;DHT22;6658;53.080;7.428;2023-12-20T02:17:49;6.30;99.90
13186;DHT22;6658;53.080;7.428;2023-12-20T02:20:15;6.30;99.90
13186;DHT22;6658;53.080;7.428;2023-12-20T02:22:40;6.30;99.90
13186;DHT22;6658;53.080;7.428;2023-12-20T02:25:06;6.30;99.90
13186;DHT22;6658;53.080;7.428;2023-12-20T02:27:32;6.40;99.90
13186;DHT22;6658;53.080;7.428;2023-12-20T02:29:58;6.40;99.90
13186;DHT22;6658;53.080;7.428;2023-12-20T02:32:25;6.50;99.90
13186;DHT22;6658;53.080;7.428;2023-12-20T02:34:55;6.60;99.90
13186;DHT22;6658;53.080;7.428;2023-12-20T02:37:21;6.60;99.90
13186;DHT22;6658;53.080;7.428;2023-12-20T02:39:46;6.60;99.90
13186;DHT22;6658;53.080;7.428;2023-12-20T02:42:12;6.60;99.90
13186;DHT22;6658;53.080;7.428;2023-12-20T02:44:38;6.60;99.90
13186;DHT22;6658;53.080;7.428;2023-12-20T02:47:04;6.60;99.90
13186;DHT22;6658;53.080;7.428;2023-12-20T02:49:30;6.60;99.90
13186;DHT22;6658;53.080;7.428;2023-12-20T02:51:55;6.50;99.90
13186;DHT22;6658;53.080;7.428;2023-12-20T02:54:21;6.50;99.90
13186;DHT22;6658;53.080;7.428;2023-12-20T02:56:47;6.60;99.90
13186;DHT22;6658;53.080;7.428;2023-12-20T02:59:13;6.60;99.90
13186;DHT22;6658;53.080;7.428;2023-12-20T03:01:44;6.60;99.90
13186;DHT22;6658;53.080;7.428;2023-12-20T03:04:10;6.60;99.90
13186;DHT22;6658;53.080;7.428;2023-12-20T03:06:36;6.60;99.90
13186;DHT22;6658;53.080;7.428;2023-12-20T03:09:02;6.60;99.90
13186;DHT22;6658;53.080;7.428;2023-12-20T03:11:28;6.50;99.90
13186;DHT22;6658;53.080;7.428;2023-12-20T03:13:54;6.50;99.90
13186;DHT22;6658;53.080;7.428;2023-12-20T03:16:20;6.50;99.90
13186;DHT22;6658;53.080;7.428;2023-12-20T03:18:46;6.50;99.90
13186;DHT22;6658;53.080;7.428;2023-12-20T03:21:12;6.40;99.90
13186;DHT22;6658;53.080;7.428;2023-12-20T03:23:37;6.40;99.90
13186;DHT22;6658;53.080;7.428;2023-12-20T03:26:03;6.40;99.90
13186;DHT22;6658;53.080;7.428;2023-12-20T03:28:32;6.30;99.90
13186;DHT22;6658;53.080;7.428;2023-12-20T03:30:57;6.30;99.90
13186;DHT22;6658;53.080;7.428;2023-12-20T03:33:23;6.40;99.90
13186;DHT22;6658;53.080;7.428;2023-12-20T03:35:48;6.40;99.90
13186;DHT22;6658;53.080;7.428;2023-12-20T03:38:14;6.50;99.90
13186;DHT22;6658;53.080;7.428;2023-12-20T03:40:40;6.60;99.90
13186;DHT22;6658;53.080;7.428;2023-12-20T03:43:05;6.60;99.90
13186;DHT22;6658;53.080;7.428;2023-12-20T03:45:31;6.60;99.90
13186;DHT22;6658;53.080;7.428;2023-12-20T03:47:57;6.60;99.90
13186;DHT22;6658;53.080;7.428;2023-12-20T03:50:23;6.60;99.90
13186;DHT22;6658;53.080;7.428;2023-12-20T03:52:48;6.50;99.90
13186;DHT22;6658;53.080;7.428;2023-12-20T03:55:14;6.50;99.90
13186;DHT22;6658;53.080;7.428;2023-12-20T03:57:40;6.50;99.90
13186;DHT22;6658;53.080;7.428;2023-12-20T04:00:07;6.50;99.90
13186;DHT22;6658;53.080;7.428;2023-12-20T04:02:42;6.50;99.90
13186;DHT22;6658;53.080;7.428;2023-12-20T04:05:09;6.40;99.90
13186;DHT22;6658;53.080;7.428;2023-12-20T04:07:35;6.50;99.90
13186;DHT22;6658;53.080;7.428;2023-12-20T04:10:02;6.50;99.90
13186;DHT22;6658;53.080;7.428;2023-12-20T04:12:29;6.50;99.90
13186;DHT22;6658;53.080;7.428;2023-12-20T04:14:55;6.60;99.90
13186;DHT22;6658;53.080;7.428;2023-12-20T04:17:21;6.60;99.90
13186;DHT22;6658;53.080;7.428;2023-12-20T04:19:48;6.70;99.90
13186;DHT22;6658;53.080;7.428;2023-12-20T04:22:14;6.70;99.90
13186;DHT22;6658;53.080;7.428;2023-12-20T04:24:40;6.70;99.90
13186;DHT22;6658;53.080;7.428;2023-12-20T04:27:08;6.80;99.90
13186;DHT22;6658;53.080;7.428;2023-12-20T04:29:34;6.80;99.90
13186;DHT22;6658;53.080;7.428;2023-12-20T04:32:00;6.80;99.90
13186;DHT22;6658;53.080;7.428;2023-12-20T04:34:25;6.80;99.90
13186;DHT22;6658;53.080;7.428;2023-12-20T04:36:52;6.90;99.90
13186;DHT22;6658;53.080;7.428;2023-12-20T04:39:18;6.90;99.90
13186;DHT22;6658;53.080;7.428;2023-12-20T04:41:43;6.90;99.90
13186;DHT22;6658;53.080;7.428;2023-12-20T04:44:09;6.90;99.90
13186;DHT22;6658;53.080;7.428;2023-12-20T04:46:35;7.00;99.90
13186;DHT22;6658;53.080;7.428;2023-12-20T04:49:01;6.90;99.90
13186;DHT22;6658;53.080;7.428;2023-12-20T04:51:27;6.90;99.90
13186;DHT22;6658;53.080;7.428;2023-12-20T04:53:52;6.90;99.90
13186;DHT22;6658;53.080;7.428;2023-12-20T04:56:18;6.90;99.90
13186;DHT22;6658;53.080;7.428;2023-12-20T04:58:43;6.80;99.90
13186;DHT22;6658;53.080;7.428;2023-12-20T05:01:09;6.80;99.90
13186;DHT22;6658;53.080;7.428;2023-12-20T05:03:36;6.70;99.90
13186;DHT22;6658;53.080;7.428;2023-12-20T05:06:02;6.60;99.90
13186;DHT22;6658;53.080;7.428;2023-12-20T05:08:27;6.60;99.90
13186;DHT22;6658;53.080;7.428;2023-12-20T05:10:54;6.60;99.90
13186;DHT22;6658;53.080;7.428;2023-12-20T05:13:20;6.50;99.90
13186;DHT22;6658;53.080;7.428;2023-12-20T05:15:46;6.50;99.90
13186;DHT22;6658;53.080;7.428;2023-12-20T05:18:12;6.50;99.90
13186;DHT22;6658;53.080;7.428;2023-12-20T05:20:38;6.60;99.90
13186;DHT22;6658;53.080;7.428;2023-12-20T05:23:04;6.70;99.90
13186;DHT22;6658;53.080;7.428;2023-12-20T05:25:29;6.70;99.90
13186;DHT22;6658;53.080;7.428;2023-12-20T05:27:55;6.80;99.90
13186;DHT22;6658;53.080;7.428;2023-12-20T05:30:21;6.90;99.90
13186;DHT22;6658;53.080;7.428;2023-12-20T05:32:47;6.90;99.90
13186;DHT22;6658;53.080;7.428;2023-12-20T05:35:13;6.90;99.90
13186;DHT22;6658;53.080;7.428;2023-12-20T05:37:39;6.90;99.90
13186;DHT22;6658;53.080;7.428;2023-12-20T05:40:05;7.00;99.90
13186;DHT22;6658;53.080;7.428;2023-12-20T05:42:31;7.00;99.90
13186;DHT22;6658;53.080;7.428;2023-12-20T05:44:56;7.00;99.90
13186;DHT22;6658;53.080;7.428;2023-12-20T05:47:22;7.00;99.90
13186;DHT22;6658;53.080;7.428;2023-12-20T05:49:48;7.10;99.90
13186;DHT22;6658;53.080;7.428;2023-12-20T05:52:13;7.10;99.90
13186;DHT22;6658;53.080;7.428;2023-12-20T05:54:40;7.20;99.90
13186;DHT22;6658;53.080;7.428;2023-12-20T05:57:05;7.20;99.90
13186;DHT22;6658;53.080;7.428;2023-12-20T05:59:31;7.20;99.90
13186;DHT22;6658;53.080;7.428;2023-12-20T06:01:57;7.20;99.90
13186;DHT22;6658;53.080;7.428;2023-12-20T06:04:22;7.30;99.90
13186;DHT22;6658;53.080;7.428;2023-12-20T06:06:48;7.20;99.90
13186;DHT22;6658;53.080;7.428;2023-12-20T06:09:14;7.20;99.90
13186;DHT22;6658;53.080;7.428;2023-12-20T06:11:40;7.20;99.90
13186;DHT22;6658;53.080;7.428;2023-12-20T06:14:06;7.20;99.90
13186;DHT22;6658;53.080;7.428;2023-12-20T06:16:32;7.20;99.90
13186;DHT22;6658;53.080;7.428;2023-12-20T06:18:57;7.30;99.90
13186;DHT22;6658;53.080;7.428;2023-12-20T06:21:23;7.20;99.90
13186;DHT22;6658;53.080;7.428;2023-12-20T06:23:49;7.20;99.90
13186;DHT22;6658;53.080;7.428;2023-12-20T06:26:14;7.30;99.90
13186;DHT22;6658;53.080;7.428;2023-12-20T06:28:40;7.30;99.90
13186;DHT22;6658;53.080;7.428;2023-12-20T06:31:06;7.30;99.90
13186;DHT22;6658;53.080;7.428;2023-12-20T06:33:31;7.30;99.90
13186;DHT22;6658;53.080;7.428;2023-12-20T06:35:57;7.40;99.90
13186;DHT22;6658;53.080;7.428;2023-12-20T06:38:23;7.40;99.90
13186;DHT22;6658;53.080;7.428;2023-12-20T06:40:48;7.40;99.90
13186;DHT22;6658;53.080;7.428;2023-12-20T06:43:14;7.40;99.90
13186;DHT22;6658;53.080;7.428;2023-12-20T06:45:40;7.50;99.90
13186;DHT22;6658;53.080;7.428;2023-12-20T06:48:06;7.50;99.90
13186;DHT22;6658;53.080;7.428;2023-12-20T06:50:32;7.50;99.90
13186;DHT22;6658;53.080;7.428;2023-12-20T06:52:58;7.50;99.90
13186;DHT22;6658;53.080;7.428;2023-12-20T06:55:23;7.50;99.90
13186;DHT22;6658;53.080;7.428;2023-12-20T06:57:49;7.50;99.90
13186;DHT22;6658;53.080;7.428;2023-12-20T07:00:15;7.50;99.90
13186;DHT22;6658;53.080;7.428;2023-12-20T07:02:41;7.50;99.90
13186;DHT22;6658;53.080;7.428;2023-12-20T07:05:07;7.50;99.90
13186;DHT22;6658;53.080;7.428;2023-12-20T07:07:32;7.50;99.90
13186;DHT22;6658;53.080;7.428;2023-12-20T07:09:58;7.60;99.90
13186;DHT22;6658;53.080;7.428;2023-12-20T07:12:24;7.60;99.90
13186;DHT22;6658;53.080;7.428;2023-12-20T07:14:49;7.60;99.90
13186;DHT22;6658;53.080;7.428;2023-12-20T07:17:15;7.60;99.90
13186;DHT22;6658;53.080;7.428;2023-12-20T07:19:42;7.60;99.90
13186;DHT22;6658;53.080;7.428;2023-12-20T07:22:10;7.60;99.90
13186;DHT22;6658;53.080;7.428;2023-12-20T07:24:36;7.60;99.90
13186;DHT22;6658;53.080;7.428;2023-12-20T07:27:02;7.50;99.90
13186;DHT22;6658;53.080;7.428;2023-12-20T07:29:28;7.60;99.90
13186;DHT22;6658;53.080;7.428;2023-12-20T07:31:54;7.60;99.90
13186;DHT22;6658;53.080;7.428;2023-12-20T07:34:20;7.60;99.90
13186;DHT22;6658;53.080;7.428;2023-12-20T07:36:46;7.60;99.90
13186;DHT22;6658;53.080;7.428;2023-12-20T07:39:12;7.60;99.90
13186;DHT22;6658;53.080;7.428;2023-12-20T07:41:38;7.70;99.90
13186;DHT22;6658;53.080;7.428;2023-12-20T07:44:04;7.60;99.90
13186;DHT22;6658;53.080;7.428;2023-12-20T07:46:30;7.60;99.90
13186;DHT22;6658;53.080;7.428;2023-12-20T07:48:56;7.70;99.90
13186;DHT22;6658;53.080;7.428;2023-12-20T07:51:22;7.70;99.90
13186;DHT22;6658;53.080;7.428;2023-12-20T07:53:47;7.70;99.90
13186;DHT22;6658;53.080;7.428;2023-12-20T07:56:17;7.70;99.90
13186;DHT22;6658;53.080;7.428;2023-12-20T07:58:43;7.70;99.90
13186;DHT22;6658;53.080;7.428;2023-12-20T08:01:10;7.70;99.90
13186;DHT22;6658;53.080;7.428;2023-12-20T08:03:36;7.70;99.90
13186;DHT22;6658;53.080;7.428;2023-12-20T08:06:02;7.70;99.90
13186;DHT22;6658;53.080;7.428;2023-12-20T08:08:28;7.70;99.90
13186;DHT22;6658;53.080;7.428;2023-12-20T08:10:54;7.70;99.90
13186;DHT22;6658;53.080;7.428;2023-12-20T08:13:19;7.80;99.90
13186;DHT22;6658;53.080;7.428;2023-12-20T08:15:45;7.80;99.90
13186;DHT22;6658;53.080;7.428;2023-12-20T08:18:11;7.80;99.90
13186;DHT22;6658;53.080;7.428;2023-12-20T08:20:36;7.90;99.90
13186;DHT22;6658;53.080;7.428;2023-12-20T08:23:02;7.90;99.90
13186;DHT22;6658;53.080;7.428;2023-12-20T08:25:28;7.90;99.90
13186;DHT22;6658;53.080;7.428;2023-12-20T08:27:53;7.90;99.90
13186;DHT22;6658;53.080;7.428;2023-12-20T08:30:19;8.00;99.90
13186;DHT22;6658;53.080;7.428;2023-12-20T08:32:48;8.00;99.90
13186;DHT22;6658;53.080;7.428;2023-12-20T08:35:14;8.10;99.90
13186;DHT22;6658;53.080;7.428;2023-12-20T08:37:39;8.10;99.90
13186;DHT22;6658;53.080;7.428;2023-12-20T08:40:06;8.10;99.90
13186;DHT22;6658;53.080;7.428;2023-12-20T08:42:31;8.10;99.90
13186;DHT22;6658;53.080;7.428;2023-12-20T08:44:58;8.20;99.90
13186;DHT22;6658;53.080;7.428;2023-12-20T08:47:24;8.20;99.90
13186;DHT22;6658;53.080;7.428;2023-12-20T08:49:50;8.20;99.90
13186;DHT22;6658;53.080;7.428;2023-12-20T08:52:15;8.20;99.90
13186;DHT22;6658;53.080;7.428;2023-12-20T08:54:41;8.20;99.90
13186;DHT22;6658;53.080;7.428;2023-12-20T08:57:07;8.20;99.90
13186;DHT22;6658;53.080;7.428;2023-12-20T08:59:33;8.20;99.90
13186;DHT22;6658;53.080;7.428;2023-12-20T09:01:58;8.20;99.90
13186;DHT22;6658;53.080;7.428;2023-12-20T09:04:25;8.30;99.90
13186;DHT22;6658;53.080;7.428;2023-12-20T09:06:51;8.30;99.90
13186;DHT22;6658;53.080;7.428;2023-12-20T09:09:16;8.40;99.90
13186;DHT22;6658;53.080;7.428;2023-12-20T09:11:42;8.50;99.90
13186;DHT22;6658;53.080;7.428;2023-12-20T09:14:08;8.70;99.90
13186;DHT22;6658;53.080;7.428;2023-12-20T09:16:34;8.70;99.90
13186;DHT22;6658;53.080;7.428;2023-12-20T09:19:00;8.50;99.90
13186;DHT22;6658;53.080;7.428;2023-12-20T09:21:26;8.00;99.90
13186;DHT22;6658;53.080;7.428;2023-12-20T09:23:51;7.60;99.90
13186;DHT22;6658;53.080;7.428;2023-12-20T09:26:17;7.30;99.90
13186;DHT22;6658;53.080;7.428;2023-12-20T09:28:43;7.10;99.90
13186;DHT22;6658;53.080;7.428;2023-12-20T09:31:09;7.00;99.90
13186;DHT22;6658;53.080;7.428;2023-12-20T09:33:34;6.80;99.90
13186;DHT22;6658;53.080;7.428;2023-12-20T09:36:00;6.80;99.90
13186;DHT22;6658;53.080;7.428;2023-12-20T09:38:26;6.70;99.90
13186;DHT22;6658;53.080;7.428;2023-12-20T09:40:52;6.70;99.90
13186;DHT22;6658;53.080;7.428;2023-12-20T09:43:20;6.70;99.90
13186;DHT22;6658;53.080;7.428;2023-12-20T09:45:46;6.70;99.90
13186;DHT22;6658;53.080;7.428;2023-12-20T09:48:13;6.70;99.90
13186;DHT22;6658;53.080;7.428;2023-12-20T09:50:42;6.70;99.90
13186;DHT22;6658;53.080;7.428;2023-12-20T09:53:14;6.70;99.90
13186;DHT22;6658;53.080;7.428;2023-12-20T09:55:41;6.70;99.90
13186;DHT22;6658;53.080;7.428;2023-12-20T09:58:07;6.70;99.90
13186;DHT22;6658;53.080;7.428;2023-12-20T10:00:34;6.80;99.90
13186;DHT22;6658;53.080;7.428;2023-12-20T10:03:00;6.80;99.90
13186;DHT22;6658;53.080;7.428;2023-12-20T10:05:31;6.80;99.90
13186;DHT22;6658;53.080;7.428;2023-12-20T10:07:58;6.80;99.90
13186;DHT22;6658;53.080;7.428;2023-12-20T10:10:24;6.80;99.90
13186;DHT22;6658;53.080;7.428;2023-12-20T10:13:08;6.80;99.90
13186;DHT22;6658;53.080;7.428;2023-12-20T10:15:37;6.90;99.90
13186;DHT22;6658;53.080;7.428;2023-12-20T10:18:04;6.90;99.90
13186;DHT22;6658;53.080;7.428;2023-12-20T10:20:30;6.90;99.90
13186;DHT22;6658;53.080;7.428;2023-12-20T10:22:57;6.80;99.90
13186;DHT22;6658;53.080;7.428;2023-12-20T10:25:24;6.90;99.90
13186;DHT22;6658;53.080;7.428;2023-12-20T10:27:50;6.90;99.90
13186;DHT22;6658;53.080;7.428;2023-12-20T10:30:33;6.90;99.90
13186;DHT22;6658;53.080;7.428;2023-12-20T10:32:59;7.00;99.90
13186;DHT22;6658;53.080;7.428;2023-12-20T10:35:25;7.10;99.90
13186;DHT22;6658;53.080;7.428;2023-12-20T10:37:55;7.20;99.90
13186;DHT22;6658;53.080;7.428;2023-12-20T10:40:25;7.20;99.90
13186;DHT22;6658;53.080;7.428;2023-12-20T10:42:53;7.10;99.90
13186;DHT22;6658;53.080;7.428;2023-12-20T10:45:19;7.10;99.90
13186;DHT22;6658;53.080;7.428;2023-12-20T10:47:46;7.10;99.90
13186;DHT22;6658;53.080;7.428;2023-12-20T10:50:12;7.10;99.90
13186;DHT22;6658;53.080;7.428;2023-12-20T10:52:38;7.10;99.90
13186;DHT22;6658;53.080;7.428;2023-12-20T10:55:06;7.20;99.90
13186;DHT22;6658;53.080;7.428;2023-12-20T10:57:32;7.20;99.90
13186;DHT22;6658;53.080;7.428;2023-12-20T11:00:01;7.20;99.90
13186;DHT22;6658;53.080;7.428;2023-12-20T11:02:32;7.30;99.90
13186;DHT22;6658;53.080;7.428;2023-12-20T11:05:13;7.30;99.90
13186;DHT22;6658;53.080;7.428;2023-12-20T11:08:00;7.40;99.90
13186;DHT22;6658;53.080;7.428;2023-12-20T11:10:42;7.40;99.90
13186;DHT22;6658;53.080;7.428;2023-12-20T11:13:16;7.40;99.90
13186;DHT22;6658;53.080;7.428;2023-12-20T11:15:43;7.50;99.90
13186;DHT22;6658;53.080;7.428;2023-12-20T11:18:09;7.50;99.90
13186;DHT22;6658;53.080;7.428;2023-12-20T11:20:39;7.50;99.90
13186;DHT22;6658;53.080;7.428;2023-12-20T11:23:06;7.50;99.90
13186;DHT22;6658;53.080;7.428;2023-12-20T11:25:51;7.60;99.90
13186;DHT22;6658;53.080;7.428;2023-12-20T11:28:21;7.60;99.90
13186;DHT22;6658;53.080;7.428;2023-12-20T11:30:56;7.60;99.90
13186;DHT22;6658;53.080;7.428;2023-12-20T11:33:24;7.60;99.90
13186;DHT22;6658;53.080;7.428;2023-12-20T11:35:51;7.60;99.90
13186;DHT22;6658;53.080;7.428;2023-12-20T11:38:17;7.60;99.90
13186;DHT22;6658;53.080;7.428;2023-12-20T11:40:48;7.60;99.90
13186;DHT22;6658;53.080;7.428;2023-12-20T11:43:37;7.60;99.90
13186;DHT22;6658;53.080;7.428;2023-12-20T11:46:07;7.60;99.90
13186;DHT22;6658;53.080;7.428;2023-12-20T11:48:36;7.50;99.90
13186;DHT22;6658;53.080;7.428;2023-12-20T11:51:02;7.50;99.90
13186;DHT22;6658;53.080;7.428;2023-12-20T11:53:29;7.50;99.90
13186;DHT22;6658;53.080;7.428;2023-12-20T11:55:56;7.50;99.90
13186;DHT22;6658;53.080;7.428;2023-12-20T11:58:22;7.60;99.90
13186;DHT22;6658;53.080;7.428;2023-12-20T12:00:49;7.60;99.90
13186;DHT22;6658;53.080;7.428;2023-12-20T12:03:16;7.60;99.90
13186;DHT22;6658;53.080;7.428;2023-12-20T12:05:41;7.60;99.90
13186;DHT22;6658;53.080;7.428;2023-12-20T12:08:07;7.60;99.90
13186;DHT22;6658;53.080;7.428;2023-12-20T12:10:33;7.60;99.90
13186;DHT22;6658;53.080;7.428;2023-12-20T12:12:59;7.60;99.90
13186;DHT22;6658;53.080;7.428;2023-12-20T12:15:26;7.60;99.90
13186;DHT22;6658;53.080;7.428;2023-12-20T12:17:55;7.50;99.90
13186;DHT22;6658;53.080;7.428;2023-12-20T12:20:22;7.50;99.90
13186;DHT22;6658;53.080;7.428;2023-12-20T12:23:06;7.50;99.90
13186;DHT22;6658;53.080;7.428;2023-12-20T12:25:34;7.50;99.90
13186;DHT22;6658;53.080;7.428;2023-12-20T12:28:01;7.60;99.90
13186;DHT22;6658;53.080;7.428;2023-12-20T12:30:27;7.80;99.90
13186;DHT22;6658;53.080;7.428;2023-12-20T12:32:53;8.00;99.90
13186;DHT22;6658;53.080;7.428;2023-12-20T12:35:20;8.10;99.90
13186;DHT22;6658;53.080;7.428;2023-12-20T12:37:46;8.20;99.90
13186;DHT22;6658;53.080;7.428;2023-12-20T12:40:13;8.30;99.90
13186;DHT22;6658;53.080;7.428;2023-12-20T12:42:39;8.30;99.90
13186;DHT22;6658;53.080;7.428;2023-12-20T12:45:06;8.30;99.90
13186;DHT22;6658;53.080;7.428;2023-12-20T12:47:33;8.20;99.90
13186;DHT22;6658;53.080;7.428;2023-12-20T12:49:59;8.10;99.90
13186;DHT22;6658;53.080;7.428;2023-12-20T12:52:25;8.10;99.90
13186;DHT22;6658;53.080;7.428;2023-12-20T12:54:52;8.10;99.90
13186;DHT22;6658;53.080;7.428;2023-12-20T12:57:18;8.10;99.90
13186;DHT22;6658;53.080;7.428;2023-12-20T12:59:45;8.10;99.90
13186;DHT22;6658;53.080;7.428;2023-12-20T13:02:14;8.10;99.90
13186;DHT22;6658;53.080;7.428;2023-12-20T13:04:43;8.10;99.90
13186;DHT22;6658;53.080;7.428;2023-12-20T13:07:09;8.10;99.90
13186;DHT22;6658;53.080;7.428;2023-12-20T13:09:38;8.10;99.90
13186;DHT22;6658;53.080;7.428;2023-12-20T13:12:05;8.10;99.90
13186;DHT22;6658;53.080;7.428;2023-12-20T13:14:33;8.10;99.90
13186;DHT22;6658;53.080;7.428;2023-12-20T13:17:00;8.10;99.90
13186;DHT22;6658;53.080;7.428;2023-12-20T13:19:26;8.10;99.90
13186;DHT22;6658;53.080;7.428;2023-12-20T13:21:53;8.10;99.90
13186;DHT22;6658;53.080;7.428;2023-12-20T13:24:19;8.20;99.90
13186;DHT22;6658;53.080;7.428;2023-12-20T13:26:44;8.20;99.90
13186;DHT22;6658;53.080;7.428;2023-12-20T13:29:10;8.20;99.90
13186;DHT22;6658;53.080;7.428;2023-12-20T13:31:37;8.20;99.90
13186;DHT22;6658;53.080;7.428;2023-12-20T13:34:03;8.20;99.90
13186;DHT22;6658;53.080;7.428;2023-12-20T13:36:29;8.30;99.90
13186;DHT22;6658;53.080;7.428;2023-12-20T13:38:55;8.30;99.90
13186;DHT22;6658;53.080;7.428;2023-12-20T13:41:21;8.40;99.90
13186;DHT22;6658;53.080;7.428;2023-12-20T13:43:47;8.40;99.90
13186;DHT22;6658;53.080;7.428;2023-12-20T13:46:12;8.40;99.90
13186;DHT22;6658;53.080;7.428;2023-12-20T13:48:39;8.40;99.90
13186;DHT22;6658;53.080;7.428;2023-12-20T13:51:05;8.40;99.90
13186;DHT22;6658;53.080;7.428;2023-12-20T13:53:31;8.40;99.90
13186;DHT22;6658;53.080;7.428;2023-12-20T13:55:57;8.30;99.90
13186;DHT22;6658;53.080;7.428;2023-12-20T13:58:23;8.20;99.90
13186;DHT22;6658;53.080;7.428;2023-12-20T14:00:49;8.20;99.90
13186;DHT22;6658;53.080;7.428;2023-12-20T14:03:14;8.10;99.90
13186;DHT22;6658;53.080;7.428;2023-12-20T14:05:40;8.10;99.90
13186;DHT22;6658;53.080;7.428;2023-12-20T14:08:06;8.10;99.90
13186;DHT22;6658;53.080;7.428;2023-12-20T14:10:32;8.00;99.90
13186;DHT22;6658;53.080;7.428;2023-12-20T14:12:58;8.10;99.90
13186;DHT22;6658;53.080;7.428;2023-12-20T14:15:24;8.00;99.90
13186;DHT22;6658;53.080;7.428;2023-12-20T14:17:50;8.00;99.90
13186;DHT22;6658;53.080;7.428;2023-12-20T14:20:16;8.00;99.90
13186;DHT22;6658;53.080;7.428;2023-12-20T14:22:43;7.90;99.90
13186;DHT22;6658;53.080;7.428;2023-12-20T14:25:11;7.90;99.90
13186;DHT22;6658;53.080;7.428;2023-12-20T14:27:38;7.90;99.90
13186;DHT22;6658;53.080;7.428;2023-12-20T14:30:05;7.80;99.90
13186;DHT22;6658;53.080;7.428;2023-12-20T14:32:31;7.80;99.90
13186;DHT22;6658;53.080;7.428;2023-12-20T14:34:57;7.70;99.90
13186;DHT22;6658;53.080;7.428;2023-12-20T14:37:23;7.70;99.90
13186;DHT22;6658;53.080;7.428;2023-12-20T14:39:49;7.60;99.90
13186;DHT22;6658;53.080;7.428;2023-12-20T14:42:15;7.60;99.90
13186;DHT22;6658;53.080;7.428;2023-12-20T14:44:41;7.60;99.90
13186;DHT22;6658;53.080;7.428;2023-12-20T14:47:07;7.50;99.90
13186;DHT22;6658;53.080;7.428;2023-12-20T14:49:33;7.50;99.90
13186;DHT22;6658;53.080;7.428;2023-12-20T14:51:58;7.50;99.90
13186;DHT22;6658;53.080;7.428;2023-12-20T14:54:25;7.50;99.90
13186;DHT22;6658;53.080;7.428;2023-12-20T14:56:51;7.40;99.90
13186;DHT22;6658;53.080;7.428;2023-12-20T14:59:16;7.40;99.90
13186;DHT22;6658;53.080;7.428;2023-12-20T15:01:43;7.40;99.90
13186;DHT22;6658;53.080;7.428;2023-12-20T15:04:09;7.30;99.90
13186;DHT22;6658;53.080;7.428;2023-12-20T15:06:35;7.30;99.90
13186;DHT22;6658;53.080;7.428;2023-12-20T15:09:01;7.30;99.90
13186;DHT22;6658;53.080;7.428;2023-12-20T15:11:33;7.30;99.90
13186;DHT22;6658;53.080;7.428;2023-12-20T15:14:00;7.30;99.90
13186;DHT22;6658;53.080;7.428;2023-12-20T15:16:26;7.20;99.90
13186;DHT22;6658;53.080;7.428;2023-12-20T15:18:53;7.20;99.90
13186;DHT22;6658;53.080;7.428;2023-12-20T15:21:22;7.10;99.90
13186;DHT22;6658;53.080;7.428;2023-12-20T15:23:56;7.10;99.90
13186;DHT22;6658;53.080;7.428;2023-12-20T15:26:32;7.10;99.90
13186;DHT22;6658;53.080;7.428;2023-12-20T15:28:58;7.10;99.90
13186;DHT22;6658;53.080;7.428;2023-12-20T15:31:25;7.10;99.90
13186;DHT22;6658;53.080;7.428;2023-12-20T15:33:52;7.00;99.90
13186;DHT22;6658;53.080;7.428;2023-12-20T15:36:19;7.00;99.90
13186;DHT22;6658;53.080;7.428;2023-12-20T15:38:44;7.00;99.90
13186;DHT22;6658;53.080;7.428;2023-12-20T15:41:20;7.00;99.90
13186;DHT22;6658;53.080;7.428;2023-12-20T15:43:46;7.00;99.90
13186;DHT22;6658;53.080;7.428;2023-12-20T15:46:13;7.00;99.90
13186;DHT22;6658;53.080;7.428;2023-12-20T15:48:39;6.90;99.90
13186;DHT22;6658;53.080;7.428;2023-12-20T15:51:05;6.90;99.90
13186;DHT22;6658;53.080;7.428;2023-12-20T15:53:31;7.00;99.90
13186;DHT22;6658;53.080;7.428;2023-12-20T15:55:57;6.90;99.90
13186;DHT22;6658;53.080;7.428;2023-12-20T15:58:22;6.90;99.90